sensor_id;sensor_type;location;lat;lon;timestamp;P1;durP1;ratioP1;P2;durP2;ratioP2
18449;SDS011;9354;50.194;7.690;2022-10-16T00:00:42;2.57;;;1.40;;
18449;SDS011;9354;50.194;7.690;2022-10-16T00:03:10;3.37;;;1.27;;
18449;SDS011;9354;50.194;7.690;2022-10-16T00:05:38;4.00;;;1.50;;
18449;SDS011;9354;50.194;7.690;2022-10-16T00:08:07;3.50;;;1.30;;
18449;SDS011;9354;50.194;7.690;2022-10-16T00:10:36;3.47;;;1.20;;
18449;SDS011;9354;50.194;7.690;2022-10-16T00:13:05;3.53;;;1.30;;
18449;SDS011;9354;50.194;7.690;2022-10-16T00:15:33;2.83;;;1.30;;
18449;SDS011;9354;50.194;7.690;2022-10-16T00:18:01;3.33;;;1.10;;
18449;SDS011;9354;50.194;7.690;2022-10-16T00:20:29;1.37;;;1.17;;
18449;SDS011;9354;50.194;7.690;2022-10-16T00:22:59;2.77;;;1.20;;
18449;SDS011;9354;50.194;7.690;2022-10-16T00:25:26;1.00;;;0.90;;
18449;SDS011;9354;50.194;7.690;2022-10-16T00:27:53;2.17;;;1.10;;
18449;SDS011;9354;50.194;7.690;2022-10-16T00:30:22;3.53;;;1.23;;
18449;SDS011;9354;50.194;7.690;2022-10-16T00:32:49;2.20;;;1.00;;
18449;SDS011;9354;50.194;7.690;2022-10-16T00:35:16;1.37;;;1.20;;
18449;SDS011;9354;50.194;7.690;2022-10-16T00:37:44;1.50;;;1.07;;
18449;SDS011;9354;50.194;7.690;2022-10-16T00:40:11;2.43;;;1.40;;
18449;SDS011;9354;50.194;7.690;2022-10-16T00:42:38;2.30;;;1.23;;
18449;SDS011;9354;50.194;7.690;2022-10-16T00:45:07;1.93;;;1.10;;
18449;SDS011;9354;50.194;7.690;2022-10-16T00:47:38;7.50;;;1.20;;
18449;SDS011;9354;50.194;7.690;2022-10-16T00:50:11;3.07;;;1.23;;
18449;SDS011;9354;50.194;7.690;2022-10-16T00:52:44;5.07;;;1.30;;
18449;SDS011;9354;50.194;7.690;2022-10-16T00:55:16;4.80;;;1.20;;
18449;SDS011;9354;50.194;7.690;2022-10-16T00:57:44;2.50;;;1.30;;
18449;SDS011;9354;50.194;7.690;2022-10-16T01:00:13;2.27;;;1.20;;
18449;SDS011;9354;50.194;7.690;2022-10-16T01:02:44;3.40;;;1.13;;
18449;SDS011;9354;50.194;7.690;2022-10-16T01:05:18;1.83;;;1.10;;
18449;SDS011;9354;50.194;7.690;2022-10-16T01:07:47;2.77;;;1.20;;
18449;SDS011;9354;50.194;7.690;2022-10-16T01:10:25;2.23;;;1.10;;
18449;SDS011;9354;50.194;7.690;2022-10-16T01:12:59;2.67;;;1.30;;
18449;SDS011;9354;50.194;7.690;2022-10-16T01:15:32;3.93;;;1.17;;
18449;SDS011;9354;50.194;7.690;2022-10-16T01:18:05;1.23;;;1.10;;
18449;SDS011;9354;50.194;7.690;2022-10-16T01:20:39;2.03;;;1.20;;
18449;SDS011;9354;50.194;7.690;2022-10-16T01:23:19;2.90;;;1.30;;
18449;SDS011;9354;50.194;7.690;2022-10-16T01:26:07;3.60;;;1.50;;
18449;SDS011;9354;50.194;7.690;2022-10-16T01:28:45;3.40;;;1.20;;
18449;SDS011;9354;50.194;7.690;2022-10-16T01:31:17;5.30;;;1.20;;
18449;SDS011;9354;50.194;7.690;2022-10-16T01:33:47;1.73;;;1.30;;
18449;SDS011;9354;50.194;7.690;2022-10-16T01:36:19;2.50;;;1.60;;
18449;SDS011;9354;50.194;7.690;2022-10-16T01:38:51;1.80;;;1.20;;
18449;SDS011;9354;50.194;7.690;2022-10-16T01:41:21;4.43;;;1.20;;
18449;SDS011;9354;50.194;7.690;2022-10-16T01:43:56;2.20;;;1.07;;
18449;SDS011;9354;50.194;7.690;2022-10-16T01:46:28;1.90;;;1.27;;
18449;SDS011;9354;50.194;7.690;2022-10-16T01:48:58;1.77;;;1.00;;
18449;SDS011;9354;50.194;7.690;2022-10-16T01:51:27;2.43;;;0.87;;
18449;SDS011;9354;50.194;7.690;2022-10-16T01:53:57;2.03;;;1.10;;
18449;SDS011;9354;50.194;7.690;2022-10-16T01:56:26;2.40;;;1.10;;
18449;SDS011;9354;50.194;7.690;2022-10-16T01:59:00;3.07;;;1.00;;
18449;SDS011;9354;50.194;7.690;2022-10-16T02:01:33;4.70;;;1.33;;
18449;SDS011;9354;50.194;7.690;2022-10-16T02:04:03;2.27;;;1.17;;
18449;SDS011;9354;50.194;7.690;2022-10-16T02:06:38;6.60;;;1.27;;
18449;SDS011;9354;50.194;7.690;2022-10-16T02:09:05;1.33;;;1.07;;
18449;SDS011;9354;50.194;7.690;2022-10-16T02:11:32;2.00;;;1.20;;
18449;SDS011;9354;50.194;7.690;2022-10-16T02:14:02;3.43;;;1.10;;
18449;SDS011;9354;50.194;7.690;2022-10-16T02:16:32;1.37;;;1.10;;
18449;SDS011;9354;50.194;7.690;2022-10-16T02:19:01;11.10;;;1.17;;
18449;SDS011;9354;50.194;7.690;2022-10-16T02:21:29;2.50;;;1.00;;
18449;SDS011;9354;50.194;7.690;2022-10-16T02:24:05;3.60;;;1.07;;
18449;SDS011;9354;50.194;7.690;2022-10-16T02:26:40;4.13;;;1.10;;
18449;SDS011;9354;50.194;7.690;2022-10-16T02:29:14;3.27;;;1.23;;
18449;SDS011;9354;50.194;7.690;2022-10-16T02:31:46;2.23;;;1.10;;
18449;SDS011;9354;50.194;7.690;2022-10-16T02:34:17;5.80;;;1.30;;
18449;SDS011;9354;50.194;7.690;2022-10-16T02:36:48;2.37;;;1.30;;
18449;SDS011;9354;50.194;7.690;2022-10-16T02:39:16;3.63;;;1.30;;
18449;SDS011;9354;50.194;7.690;2022-10-16T02:41:46;1.33;;;1.00;;
18449;SDS011;9354;50.194;7.690;2022-10-16T02:44:16;6.57;;;1.17;;
18449;SDS011;9354;50.194;7.690;2022-10-16T02:46:43;2.20;;;1.10;;
18449;SDS011;9354;50.194;7.690;2022-10-16T02:49:10;2.93;;;1.00;;
18449;SDS011;9354;50.194;7.690;2022-10-16T02:51:38;5.50;;;1.20;;
18449;SDS011;9354;50.194;7.690;2022-10-16T02:54:05;3.37;;;1.00;;
18449;SDS011;9354;50.194;7.690;2022-10-16T02:56:32;1.73;;;1.00;;
18449;SDS011;9354;50.194;7.690;2022-10-16T02:59:00;2.20;;;0.80;;
18449;SDS011;9354;50.194;7.690;2022-10-16T03:01:28;1.30;;;0.83;;
18449;SDS011;9354;50.194;7.690;2022-10-16T03:03:56;9.77;;;1.03;;
18449;SDS011;9354;50.194;7.690;2022-10-16T03:06:23;2.30;;;1.10;;
18449;SDS011;9354;50.194;7.690;2022-10-16T03:08:50;1.13;;;0.70;;
18449;SDS011;9354;50.194;7.690;2022-10-16T03:11:18;3.43;;;0.90;;
18449;SDS011;9354;50.194;7.690;2022-10-16T03:13:45;2.77;;;1.00;;
18449;SDS011;9354;50.194;7.690;2022-10-16T03:16:12;0.90;;;0.70;;
18449;SDS011;9354;50.194;7.690;2022-10-16T03:18:41;1.17;;;0.87;;
18449;SDS011;9354;50.194;7.690;2022-10-16T03:21:08;2.60;;;0.90;;
18449;SDS011;9354;50.194;7.690;2022-10-16T03:23:35;1.97;;;1.00;;
18449;SDS011;9354;50.194;7.690;2022-10-16T03:26:03;1.63;;;1.13;;
18449;SDS011;9354;50.194;7.690;2022-10-16T03:28:30;4.07;;;1.20;;
18449;SDS011;9354;50.194;7.690;2022-10-16T03:30:58;2.40;;;1.27;;
18449;SDS011;9354;50.194;7.690;2022-10-16T03:33:25;2.80;;;1.10;;
18449;SDS011;9354;50.194;7.690;2022-10-16T03:35:54;1.27;;;1.00;;
18449;SDS011;9354;50.194;7.690;2022-10-16T03:38:21;2.67;;;1.20;;
18449;SDS011;9354;50.194;7.690;2022-10-16T03:40:48;1.20;;;0.80;;
18449;SDS011;9354;50.194;7.690;2022-10-16T03:43:16;1.73;;;0.90;;
18449;SDS011;9354;50.194;7.690;2022-10-16T03:45:43;1.10;;;1.00;;
18449;SDS011;9354;50.194;7.690;2022-10-16T03:48:10;1.50;;;1.00;;
18449;SDS011;9354;50.194;7.690;2022-10-16T03:50:38;4.90;;;1.00;;
18449;SDS011;9354;50.194;7.690;2022-10-16T03:53:06;1.43;;;0.90;;
18449;SDS011;9354;50.194;7.690;2022-10-16T03:55:34;2.30;;;0.90;;
18449;SDS011;9354;50.194;7.690;2022-10-16T03:58:01;1.03;;;0.90;;
18449;SDS011;9354;50.194;7.690;2022-10-16T04:00:29;1.67;;;0.87;;
18449;SDS011;9354;50.194;7.690;2022-10-16T04:02:56;2.30;;;1.03;;
18449;SDS011;9354;50.194;7.690;2022-10-16T04:05:24;1.93;;;0.80;;
18449;SDS011;9354;50.194;7.690;2022-10-16T04:07:51;2.10;;;1.17;;
18449;SDS011;9354;50.194;7.690;2022-10-16T04:10:20;1.90;;;1.00;;
18449;SDS011;9354;50.194;7.690;2022-10-16T04:12:47;1.00;;;0.80;;
18449;SDS011;9354;50.194;7.690;2022-10-16T04:15:14;1.00;;;0.70;;
18449;SDS011;9354;50.194;7.690;2022-10-16T04:17:42;1.10;;;0.70;;
18449;SDS011;9354;50.194;7.690;2022-10-16T04:20:09;6.83;;;0.80;;
18449;SDS011;9354;50.194;7.690;2022-10-16T04:22:37;3.77;;;0.87;;
18449;SDS011;9354;50.194;7.690;2022-10-16T04:25:04;2.53;;;0.80;;
18449;SDS011;9354;50.194;7.690;2022-10-16T04:27:33;1.50;;;0.80;;
18449;SDS011;9354;50.194;7.690;2022-10-16T04:30:01;2.20;;;0.60;;
18449;SDS011;9354;50.194;7.690;2022-10-16T04:32:28;0.60;;;0.60;;
18449;SDS011;9354;50.194;7.690;2022-10-16T04:34:55;2.10;;;0.80;;
18449;SDS011;9354;50.194;7.690;2022-10-16T04:37:23;5.30;;;0.80;;
18449;SDS011;9354;50.194;7.690;2022-10-16T04:39:51;5.83;;;0.63;;
18449;SDS011;9354;50.194;7.690;2022-10-16T04:42:19;1.17;;;0.73;;
18449;SDS011;9354;50.194;7.690;2022-10-16T04:44:48;1.20;;;0.90;;
18449;SDS011;9354;50.194;7.690;2022-10-16T04:47:15;4.10;;;0.70;;
18449;SDS011;9354;50.194;7.690;2022-10-16T04:49:42;2.03;;;0.73;;
18449;SDS011;9354;50.194;7.690;2022-10-16T04:52:10;0.90;;;0.80;;
18449;SDS011;9354;50.194;7.690;2022-10-16T04:54:37;7.63;;;1.10;;
18449;SDS011;9354;50.194;7.690;2022-10-16T04:57:04;2.10;;;0.70;;
18449;SDS011;9354;50.194;7.690;2022-10-16T04:59:32;1.00;;;0.90;;
18449;SDS011;9354;50.194;7.690;2022-10-16T05:02:00;1.80;;;0.93;;
18449;SDS011;9354;50.194;7.690;2022-10-16T05:04:28;3.27;;;1.00;;
18449;SDS011;9354;50.194;7.690;2022-10-16T05:06:55;4.60;;;1.07;;
18449;SDS011;9354;50.194;7.690;2022-10-16T05:09:22;0.90;;;0.90;;
18449;SDS011;9354;50.194;7.690;2022-10-16T05:11:50;1.87;;;1.27;;
18449;SDS011;9354;50.194;7.690;2022-10-16T05:14:17;1.20;;;1.00;;
18449;SDS011;9354;50.194;7.690;2022-10-16T05:16:44;2.47;;;1.00;;
18449;SDS011;9354;50.194;7.690;2022-10-16T05:19:15;3.23;;;0.90;;
18449;SDS011;9354;50.194;7.690;2022-10-16T05:21:42;2.20;;;1.10;;
18449;SDS011;9354;50.194;7.690;2022-10-16T05:24:09;4.00;;;1.00;;
18449;SDS011;9354;50.194;7.690;2022-10-16T05:26:37;4.97;;;1.00;;
18449;SDS011;9354;50.194;7.690;2022-10-16T05:29:04;2.07;;;1.20;;
18449;SDS011;9354;50.194;7.690;2022-10-16T05:31:32;1.70;;;1.00;;
18449;SDS011;9354;50.194;7.690;2022-10-16T05:34:00;1.57;;;0.83;;
18449;SDS011;9354;50.194;7.690;2022-10-16T05:36:29;1.13;;;0.90;;
18449;SDS011;9354;50.194;7.690;2022-10-16T05:38:56;3.10;;;1.07;;
18449;SDS011;9354;50.194;7.690;2022-10-16T05:41:23;6.17;;;1.00;;
18449;SDS011;9354;50.194;7.690;2022-10-16T05:43:51;4.40;;;1.10;;
18449;SDS011;9354;50.194;7.690;2022-10-16T05:46:19;1.63;;;0.90;;
18449;SDS011;9354;50.194;7.690;2022-10-16T05:48:47;2.87;;;1.03;;
18449;SDS011;9354;50.194;7.690;2022-10-16T05:51:14;7.37;;;1.40;;
18449;SDS011;9354;50.194;7.690;2022-10-16T05:53:43;1.10;;;1.00;;
18449;SDS011;9354;50.194;7.690;2022-10-16T05:56:10;1.47;;;0.83;;
18449;SDS011;9354;50.194;7.690;2022-10-16T05:58:38;3.80;;;1.00;;
18449;SDS011;9354;50.194;7.690;2022-10-16T06:01:07;1.30;;;1.03;;
18449;SDS011;9354;50.194;7.690;2022-10-16T06:03:37;2.03;;;1.27;;
18449;SDS011;9354;50.194;7.690;2022-10-16T06:06:08;3.23;;;1.10;;
18449;SDS011;9354;50.194;7.690;2022-10-16T06:08:36;2.50;;;1.40;;
18449;SDS011;9354;50.194;7.690;2022-10-16T06:11:06;1.53;;;1.10;;
18449;SDS011;9354;50.194;7.690;2022-10-16T06:13:34;1.87;;;1.20;;
18449;SDS011;9354;50.194;7.690;2022-10-16T06:16:02;2.03;;;1.37;;
18449;SDS011;9354;50.194;7.690;2022-10-16T06:18:30;4.47;;;1.33;;
18449;SDS011;9354;50.194;7.690;2022-10-16T06:20:58;1.67;;;1.17;;
18449;SDS011;9354;50.194;7.690;2022-10-16T06:23:25;4.10;;;1.33;;
18449;SDS011;9354;50.194;7.690;2022-10-16T06:26:04;2.60;;;1.43;;
18449;SDS011;9354;50.194;7.690;2022-10-16T06:28:32;1.50;;;1.37;;
18449;SDS011;9354;50.194;7.690;2022-10-16T06:31:00;3.50;;;1.27;;
18449;SDS011;9354;50.194;7.690;2022-10-16T06:33:27;2.30;;;1.50;;
18449;SDS011;9354;50.194;7.690;2022-10-16T06:35:59;2.73;;;1.37;;
18449;SDS011;9354;50.194;7.690;2022-10-16T06:38:27;2.00;;;1.67;;
18449;SDS011;9354;50.194;7.690;2022-10-16T06:40:55;2.77;;;1.40;;
18449;SDS011;9354;50.194;7.690;2022-10-16T06:43:24;1.63;;;1.30;;
18449;SDS011;9354;50.194;7.690;2022-10-16T06:45:51;3.53;;;1.83;;
18449;SDS011;9354;50.194;7.690;2022-10-16T06:48:19;3.10;;;1.53;;
18449;SDS011;9354;50.194;7.690;2022-10-16T06:50:56;2.57;;;1.90;;
18449;SDS011;9354;50.194;7.690;2022-10-16T06:53:24;2.40;;;1.90;;
18449;SDS011;9354;50.194;7.690;2022-10-16T06:55:53;3.20;;;1.83;;
18449;SDS011;9354;50.194;7.690;2022-10-16T06:58:20;3.10;;;2.03;;
18449;SDS011;9354;50.194;7.690;2022-10-16T07:00:50;3.40;;;1.80;;
18449;SDS011;9354;50.194;7.690;2022-10-16T07:03:22;4.67;;;1.90;;
18449;SDS011;9354;50.194;7.690;2022-10-16T07:05:49;3.97;;;1.93;;
18449;SDS011;9354;50.194;7.690;2022-10-16T07:08:17;2.80;;;1.90;;
18449;SDS011;9354;50.194;7.690;2022-10-16T07:10:44;3.07;;;1.90;;
18449;SDS011;9354;50.194;7.690;2022-10-16T07:13:11;2.70;;;1.80;;
18449;SDS011;9354;50.194;7.690;2022-10-16T07:15:39;2.30;;;1.80;;
18449;SDS011;9354;50.194;7.690;2022-10-16T07:18:08;2.53;;;1.63;;
18449;SDS011;9354;50.194;7.690;2022-10-16T07:20:36;6.40;;;2.00;;
18449;SDS011;9354;50.194;7.690;2022-10-16T07:23:04;2.67;;;2.10;;
18449;SDS011;9354;50.194;7.690;2022-10-16T07:25:31;4.23;;;1.80;;
18449;SDS011;9354;50.194;7.690;2022-10-16T07:27:58;7.60;;;2.77;;
18449;SDS011;9354;50.194;7.690;2022-10-16T07:30:25;6.53;;;2.40;;
18449;SDS011;9354;50.194;7.690;2022-10-16T07:32:53;3.97;;;2.03;;
18449;SDS011;9354;50.194;7.690;2022-10-16T07:35:21;4.80;;;1.77;;
18449;SDS011;9354;50.194;7.690;2022-10-16T07:37:49;3.13;;;2.10;;
18449;SDS011;9354;50.194;7.690;2022-10-16T07:40:16;5.03;;;2.27;;
18449;SDS011;9354;50.194;7.690;2022-10-16T07:42:43;2.77;;;2.17;;
18449;SDS011;9354;50.194;7.690;2022-10-16T07:45:11;5.07;;;2.30;;
18449;SDS011;9354;50.194;7.690;2022-10-16T07:47:38;3.13;;;1.93;;
18449;SDS011;9354;50.194;7.690;2022-10-16T07:50:05;3.20;;;2.20;;
18449;SDS011;9354;50.194;7.690;2022-10-16T07:52:35;3.23;;;2.13;;
18449;SDS011;9354;50.194;7.690;2022-10-16T07:55:02;3.47;;;2.20;;
18449;SDS011;9354;50.194;7.690;2022-10-16T07:57:30;2.17;;;1.80;;
18449;SDS011;9354;50.194;7.690;2022-10-16T07:59:57;3.13;;;1.67;;
18449;SDS011;9354;50.194;7.690;2022-10-16T08:02:24;4.10;;;2.17;;
18449;SDS011;9354;50.194;7.690;2022-10-16T08:04:52;4.07;;;2.40;;
18449;SDS011;9354;50.194;7.690;2022-10-16T08:07:19;3.33;;;2.23;;
18449;SDS011;9354;50.194;7.690;2022-10-16T08:09:50;3.53;;;2.40;;
18449;SDS011;9354;50.194;7.690;2022-10-16T08:12:18;5.57;;;2.10;;
18449;SDS011;9354;50.194;7.690;2022-10-16T08:14:45;3.30;;;2.13;;
18449;SDS011;9354;50.194;7.690;2022-10-16T08:17:13;3.73;;;2.10;;
18449;SDS011;9354;50.194;7.690;2022-10-16T08:19:44;5.13;;;2.07;;
18449;SDS011;9354;50.194;7.690;2022-10-16T08:22:12;2.97;;;1.80;;
18449;SDS011;9354;50.194;7.690;2022-10-16T08:24:40;2.53;;;1.10;;
18449;SDS011;9354;50.194;7.690;2022-10-16T08:27:09;3.70;;;1.63;;
18449;SDS011;9354;50.194;7.690;2022-10-16T08:29:36;2.00;;;1.60;;
18449;SDS011;9354;50.194;7.690;2022-10-16T08:32:04;1.83;;;1.17;;
18449;SDS011;9354;50.194;7.690;2022-10-16T08:34:31;2.83;;;1.30;;
18449;SDS011;9354;50.194;7.690;2022-10-16T08:36:59;3.67;;;1.30;;
18449;SDS011;9354;50.194;7.690;2022-10-16T08:39:26;5.50;;;1.27;;
18449;SDS011;9354;50.194;7.690;2022-10-16T08:41:57;1.93;;;1.60;;
18449;SDS011;9354;50.194;7.690;2022-10-16T08:44:49;1.47;;;1.30;;
18449;SDS011;9354;50.194;7.690;2022-10-16T08:47:43;2.53;;;1.40;;
18449;SDS011;9354;50.194;7.690;2022-10-16T08:50:17;2.17;;;1.80;;
18449;SDS011;9354;50.194;7.690;2022-10-16T08:52:49;3.67;;;1.17;;
18449;SDS011;9354;50.194;7.690;2022-10-16T08:55:22;1.30;;;1.20;;
18449;SDS011;9354;50.194;7.690;2022-10-16T08:57:57;3.77;;;0.83;;
18449;SDS011;9354;50.194;7.690;2022-10-16T09:00:27;2.80;;;0.80;;
18449;SDS011;9354;50.194;7.690;2022-10-16T09:02:58;1.93;;;0.60;;
18449;SDS011;9354;50.194;7.690;2022-10-16T09:05:42;1.80;;;0.80;;
18449;SDS011;9354;50.194;7.690;2022-10-16T09:08:20;1.43;;;0.70;;
18449;SDS011;9354;50.194;7.690;2022-10-16T09:10:56;1.10;;;0.80;;
18449;SDS011;9354;50.194;7.690;2022-10-16T09:13:28;0.80;;;0.60;;
18449;SDS011;9354;50.194;7.690;2022-10-16T09:16:08;0.90;;;0.70;;
18449;SDS011;9354;50.194;7.690;2022-10-16T09:18:44;0.90;;;0.67;;
18449;SDS011;9354;50.194;7.690;2022-10-16T09:21:18;1.60;;;0.70;;
18449;SDS011;9354;50.194;7.690;2022-10-16T09:23:48;0.80;;;0.60;;
18449;SDS011;9354;50.194;7.690;2022-10-16T09:26:17;1.30;;;0.60;;
18449;SDS011;9354;50.194;7.690;2022-10-16T09:28:47;3.43;;;0.53;;
18449;SDS011;9354;50.194;7.690;2022-10-16T09:31:19;5.87;;;3.10;;
18449;SDS011;9354;50.194;7.690;2022-10-16T09:33:50;3.87;;;1.07;;
18449;SDS011;9354;50.194;7.690;2022-10-16T09:36:20;0.80;;;0.80;;
18449;SDS011;9354;50.194;7.690;2022-10-16T09:39:00;2.37;;;0.70;;
18449;SDS011;9354;50.194;7.690;2022-10-16T09:41:30;2.00;;;0.93;;
18449;SDS011;9354;50.194;7.690;2022-10-16T09:44:00;2.07;;;0.60;;
18449;SDS011;9354;50.194;7.690;2022-10-16T09:46:32;1.63;;;0.60;;
18449;SDS011;9354;50.194;7.690;2022-10-16T09:49:02;2.47;;;0.67;;
18449;SDS011;9354;50.194;7.690;2022-10-16T09:51:31;1.83;;;0.60;;
18449;SDS011;9354;50.194;7.690;2022-10-16T09:54:01;0.90;;;0.60;;
18449;SDS011;9354;50.194;7.690;2022-10-16T09:56:37;1.17;;;0.53;;
18449;SDS011;9354;50.194;7.690;2022-10-16T09:59:08;0.60;;;0.60;;
18449;SDS011;9354;50.194;7.690;2022-10-16T10:01:40;2.83;;;0.53;;
18449;SDS011;9354;50.194;7.690;2022-10-16T10:04:08;5.43;;;0.60;;
18449;SDS011;9354;50.194;7.690;2022-10-16T10:06:37;1.67;;;0.50;;
18449;SDS011;9354;50.194;7.690;2022-10-16T10:09:16;1.17;;;0.50;;
18449;SDS011;9354;50.194;7.690;2022-10-16T10:11:48;0.77;;;0.40;;
18449;SDS011;9354;50.194;7.690;2022-10-16T10:14:25;1.17;;;0.40;;
18449;SDS011;9354;50.194;7.690;2022-10-16T10:17:08;0.50;;;0.40;;
18449;SDS011;9354;50.194;7.690;2022-10-16T10:19:38;0.40;;;0.40;;
18449;SDS011;9354;50.194;7.690;2022-10-16T10:22:16;0.70;;;0.50;;
18449;SDS011;9354;50.194;7.690;2022-10-16T10:24:46;4.23;;;0.40;;
18449;SDS011;9354;50.194;7.690;2022-10-16T10:27:21;0.50;;;0.47;;
18449;SDS011;9354;50.194;7.690;2022-10-16T10:29:57;0.73;;;0.30;;
18449;SDS011;9354;50.194;7.690;2022-10-16T10:32:36;0.60;;;0.33;;
18449;SDS011;9354;50.194;7.690;2022-10-16T10:35:14;0.43;;;0.30;;
18449;SDS011;9354;50.194;7.690;2022-10-16T10:37:55;1.90;;;0.20;;
18449;SDS011;9354;50.194;7.690;2022-10-16T10:40:39;3.03;;;0.30;;
18449;SDS011;9354;50.194;7.690;2022-10-16T10:43:20;0.50;;;0.37;;
18449;SDS011;9354;50.194;7.690;2022-10-16T10:46:02;0.63;;;0.30;;
18449;SDS011;9354;50.194;7.690;2022-10-16T10:48:42;0.93;;;0.40;;
18449;SDS011;9354;50.194;7.690;2022-10-16T10:51:22;0.87;;;0.30;;
18449;SDS011;9354;50.194;7.690;2022-10-16T10:53:56;0.80;;;0.30;;
18449;SDS011;9354;50.194;7.690;2022-10-16T10:56:39;2.00;;;0.20;;
18449;SDS011;9354;50.194;7.690;2022-10-16T11:02:09;0.30;;;0.20;;
18449;SDS011;9354;50.194;7.690;2022-10-16T11:04:47;0.20;;;0.20;;
18449;SDS011;9354;50.194;7.690;2022-10-16T11:07:51;0.30;;;0.23;;
18449;SDS011;9354;50.194;7.690;2022-10-16T11:10:22;1.40;;;0.20;;
18449;SDS011;9354;50.194;7.690;2022-10-16T11:12:52;3.20;;;0.30;;
18449;SDS011;9354;50.194;7.690;2022-10-16T11:15:25;0.20;;;0.20;;
18449;SDS011;9354;50.194;7.690;2022-10-16T11:17:57;0.50;;;0.30;;
18449;SDS011;9354;50.194;7.690;2022-10-16T11:20:31;0.90;;;0.27;;
18449;SDS011;9354;50.194;7.690;2022-10-16T11:23:02;0.20;;;0.20;;
18449;SDS011;9354;50.194;7.690;2022-10-16T11:25:37;1.03;;;0.30;;
18449;SDS011;9354;50.194;7.690;2022-10-16T11:28:07;1.37;;;0.30;;
18449;SDS011;9354;50.194;7.690;2022-10-16T11:30:40;0.53;;;0.30;;
18449;SDS011;9354;50.194;7.690;2022-10-16T11:33:20;0.30;;;0.30;;
18449;SDS011;9354;50.194;7.690;2022-10-16T11:35:55;0.33;;;0.20;;
18449;SDS011;9354;50.194;7.690;2022-10-16T11:38:29;1.33;;;0.30;;
18449;SDS011;9354;50.194;7.690;2022-10-16T11:41:02;0.50;;;0.30;;
18449;SDS011;9354;50.194;7.690;2022-10-16T11:43:46;0.37;;;0.30;;
18449;SDS011;9354;50.194;7.690;2022-10-16T11:46:20;0.50;;;0.23;;
18449;SDS011;9354;50.194;7.690;2022-10-16T11:48:51;0.33;;;0.20;;
18449;SDS011;9354;50.194;7.690;2022-10-16T11:51:29;0.20;;;0.20;;
18449;SDS011;9354;50.194;7.690;2022-10-16T11:54:03;0.40;;;0.30;;
18449;SDS011;9354;50.194;7.690;2022-10-16T11:56:36;0.33;;;0.20;;
18449;SDS011;9354;50.194;7.690;2022-10-16T11:59:07;0.47;;;0.40;;
18449;SDS011;9354;50.194;7.690;2022-10-16T12:01:43;1.37;;;0.30;;
18449;SDS011;9354;50.194;7.690;2022-10-16T12:04:16;1.00;;;0.40;;
18449;SDS011;9354;50.194;7.690;2022-10-16T12:06:51;0.97;;;0.50;;
18449;SDS011;9354;50.194;7.690;2022-10-16T12:09:26;0.20;;;0.20;;
18449;SDS011;9354;50.194;7.690;2022-10-16T12:11:55;0.53;;;0.33;;
18449;SDS011;9354;50.194;7.690;2022-10-16T12:14:38;2.20;;;0.30;;
18449;SDS011;9354;50.194;7.690;2022-10-16T12:17:25;0.53;;;0.30;;
18449;SDS011;9354;50.194;7.690;2022-10-16T12:20:01;0.93;;;0.20;;
18449;SDS011;9354;50.194;7.690;2022-10-16T12:22:49;0.40;;;0.30;;
18449;SDS011;9354;50.194;7.690;2022-10-16T12:25:20;0.60;;;0.30;;
18449;SDS011;9354;50.194;7.690;2022-10-16T12:27:54;3.50;;;0.40;;
18449;SDS011;9354;50.194;7.690;2022-10-16T12:30:23;0.63;;;0.40;;
18449;SDS011;9354;50.194;7.690;2022-10-16T12:32:52;1.30;;;0.40;;
18449;SDS011;9354;50.194;7.690;2022-10-16T12:35:21;0.80;;;0.50;;
18449;SDS011;9354;50.194;7.690;2022-10-16T12:37:51;0.60;;;0.50;;
18449;SDS011;9354;50.194;7.690;2022-10-16T12:40:24;0.30;;;0.30;;
18449;SDS011;9354;50.194;7.690;2022-10-16T12:42:54;0.50;;;0.40;;
18449;SDS011;9354;50.194;7.690;2022-10-16T12:45:26;0.50;;;0.50;;
18449;SDS011;9354;50.194;7.690;2022-10-16T12:47:56;0.83;;;0.60;;
18449;SDS011;9354;50.194;7.690;2022-10-16T12:50:32;1.73;;;0.47;;
18449;SDS011;9354;50.194;7.690;2022-10-16T12:53:03;3.40;;;0.50;;
18449;SDS011;9354;50.194;7.690;2022-10-16T12:55:45;0.77;;;0.60;;
18449;SDS011;9354;50.194;7.690;2022-10-16T13:01:25;1.73;;;0.60;;
18449;SDS011;9354;50.194;7.690;2022-10-16T13:04:04;2.27;;;0.60;;
18449;SDS011;9354;50.194;7.690;2022-10-16T13:06:49;0.77;;;0.67;;
18449;SDS011;9354;50.194;7.690;2022-10-16T13:09:25;1.17;;;0.63;;
18449;SDS011;9354;50.194;7.690;2022-10-16T13:12:15;2.60;;;0.80;;
18449;SDS011;9354;50.194;7.690;2022-10-16T13:15:11;2.23;;;1.10;;
18449;SDS011;9354;50.194;7.690;2022-10-16T13:18:00;1.20;;;0.80;;
18449;SDS011;9354;50.194;7.690;2022-10-16T13:20:40;1.67;;;0.80;;
18449;SDS011;9354;50.194;7.690;2022-10-16T13:23:26;1.27;;;0.83;;
18449;SDS011;9354;50.194;7.690;2022-10-16T13:26:03;1.40;;;1.00;;
18449;SDS011;9354;50.194;7.690;2022-10-16T13:28:40;1.43;;;1.17;;
18449;SDS011;9354;50.194;7.690;2022-10-16T13:31:10;1.23;;;1.13;;
18449;SDS011;9354;50.194;7.690;2022-10-16T13:33:43;1.40;;;1.10;;
18449;SDS011;9354;50.194;7.690;2022-10-16T13:36:20;7.30;;;1.00;;
18449;SDS011;9354;50.194;7.690;2022-10-16T13:38:48;2.00;;;1.07;;
18449;SDS011;9354;50.194;7.690;2022-10-16T13:41:26;1.57;;;1.20;;
18449;SDS011;9354;50.194;7.690;2022-10-16T13:43:53;3.97;;;1.60;;
18449;SDS011;9354;50.194;7.690;2022-10-16T13:46:23;2.13;;;1.23;;
18449;SDS011;9354;50.194;7.690;2022-10-16T13:49:01;2.00;;;1.53;;
18449;SDS011;9354;50.194;7.690;2022-10-16T13:51:30;1.77;;;1.30;;
18449;SDS011;9354;50.194;7.690;2022-10-16T13:53:58;1.33;;;1.20;;
18449;SDS011;9354;50.194;7.690;2022-10-16T13:56:28;3.27;;;1.23;;
18449;SDS011;9354;50.194;7.690;2022-10-16T13:59:00;6.63;;;1.53;;
18449;SDS011;9354;50.194;7.690;2022-10-16T14:01:29;1.50;;;1.30;;
18449;SDS011;9354;50.194;7.690;2022-10-16T14:04:00;1.67;;;1.33;;
18449;SDS011;9354;50.194;7.690;2022-10-16T14:06:30;3.57;;;1.37;;
18449;SDS011;9354;50.194;7.690;2022-10-16T14:08:59;3.10;;;1.40;;
18449;SDS011;9354;50.194;7.690;2022-10-16T14:11:32;2.80;;;1.47;;
18449;SDS011;9354;50.194;7.690;2022-10-16T14:14:02;2.03;;;1.40;;
18449;SDS011;9354;50.194;7.690;2022-10-16T14:16:30;1.50;;;1.30;;
18449;SDS011;9354;50.194;7.690;2022-10-16T14:18:59;3.70;;;1.40;;
18449;SDS011;9354;50.194;7.690;2022-10-16T14:21:28;2.40;;;1.70;;
18449;SDS011;9354;50.194;7.690;2022-10-16T14:23:56;1.50;;;1.30;;
18449;SDS011;9354;50.194;7.690;2022-10-16T14:26:23;1.63;;;1.30;;
18449;SDS011;9354;50.194;7.690;2022-10-16T14:29:09;5.33;;;1.50;;
18449;SDS011;9354;50.194;7.690;2022-10-16T14:31:38;2.10;;;1.50;;
18449;SDS011;9354;50.194;7.690;2022-10-16T14:36:53;4.20;;;1.40;;
18449;SDS011;9354;50.194;7.690;2022-10-16T14:39:21;1.40;;;1.30;;
18449;SDS011;9354;50.194;7.690;2022-10-16T14:41:50;1.73;;;1.20;;
18449;SDS011;9354;50.194;7.690;2022-10-16T14:44:21;1.87;;;1.50;;
18449;SDS011;9354;50.194;7.690;2022-10-16T14:46:54;3.00;;;1.13;;
18449;SDS011;9354;50.194;7.690;2022-10-16T14:49:21;1.70;;;1.20;;
18449;SDS011;9354;50.194;7.690;2022-10-16T14:51:50;2.33;;;1.57;;
18449;SDS011;9354;50.194;7.690;2022-10-16T14:54:18;2.50;;;1.70;;
18449;SDS011;9354;50.194;7.690;2022-10-16T14:56:47;2.13;;;1.43;;
18449;SDS011;9354;50.194;7.690;2022-10-16T14:59:16;3.60;;;1.63;;
18449;SDS011;9354;50.194;7.690;2022-10-16T15:01:48;1.97;;;1.50;;
18449;SDS011;9354;50.194;7.690;2022-10-16T15:04:15;2.77;;;1.53;;
18449;SDS011;9354;50.194;7.690;2022-10-16T15:06:43;3.40;;;1.37;;
18449;SDS011;9354;50.194;7.690;2022-10-16T15:09:10;2.40;;;1.87;;
18449;SDS011;9354;50.194;7.690;2022-10-16T15:11:38;3.77;;;1.67;;
18449;SDS011;9354;50.194;7.690;2022-10-16T15:14:06;5.37;;;1.93;;
18449;SDS011;9354;50.194;7.690;2022-10-16T15:16:35;5.40;;;1.93;;
18449;SDS011;9354;50.194;7.690;2022-10-16T15:19:03;4.20;;;1.80;;
18449;SDS011;9354;50.194;7.690;2022-10-16T15:21:31;4.53;;;1.90;;
18449;SDS011;9354;50.194;7.690;2022-10-16T15:23:59;6.27;;;1.83;;
18449;SDS011;9354;50.194;7.690;2022-10-16T15:26:27;3.93;;;1.90;;
18449;SDS011;9354;50.194;7.690;2022-10-16T15:28:56;2.53;;;1.80;;
18449;SDS011;9354;50.194;7.690;2022-10-16T15:31:23;6.20;;;2.10;;